Time;durP1;ratioP1;P1;durP2;ratioP2;P2;SDS_P1;SDS_P2;PMS_P1;PMS_P2;Temp;Humidity;BMP_temperature;BMP_pressure;BME280_temperature;BME280_humidity;BME280_pressure;Samples;Min_cycle;Max_cycle;Signal;HPM_P1;HPM_P2
2021/01/25 00:01:49;;;;;;;4.00;2.78;;;;;;;;;;10209457;28;20069;-63
2021/01/25 00:06:46;;;;;;;8.93;3.10;;;;;;;;;;10211582;28;20077;-60
2021/01/25 00:11:44;;;;;;;4.47;2.38;;;;;;;;;;10211353;28;20077;-61
2021/01/25 00:16:42;;;;;;;4.03;2.30;;;;;;;;;;10219761;28;20455;-62
2021/01/25 00:21:39;;;;;;;5.38;2.70;;;;;;;;;;10219882;28;20076;-62
2021/01/25 00:26:37;;;;;;;4.75;2.70;;;;;;;;;;10217744;28;20065;-62
2021/01/25 00:31:34;;;;;;;3.95;2.30;;;;;;;;;;10218690;28;20082;-62
2021/01/25 00:36:32;;;;;;;11.10;3.22;;;;;;;;;;10215382;28;20061;-62
2021/01/25 00:41:30;;;;;;;5.95;2.67;;;;;;;;;;10219508;28;20080;-63
2021/01/25 00:46:28;;;;;;;10.07;3.85;;;;;;;;;;10217181;28;20160;-63
2021/01/25 00:51:26;;;;;;;9.52;2.78;;;;;;;;;;10217645;28;20432;-63
2021/01/25 00:56:24;;;;;;;7.38;2.90;;;;;;;;;;10218531;28;20064;-63
2021/01/25 01:01:22;;;;;;;7.32;2.70;;;;;;;;;;10216404;28;20076;-63
2021/01/25 01:06:19;;;;;;;6.45;3.08;;;;;;;;;;10217346;28;20089;-63
2021/01/25 01:11:17;;;;;;;5.68;2.83;;;;;;;;;;10214158;28;20065;-63
2021/01/25 01:16:15;;;;;;;6.00;3.55;;;;;;;;;;10218096;28;20061;-64
2021/01/25 01:21:12;;;;;;;9.18;2.53;;;;;;;;;;10216770;28;20084;-63
2021/01/25 01:26:10;;;;;;;5.97;3.67;;;;;;;;;;10217024;28;20081;-63
2021/01/25 01:31:07;;;;;;;3.90;2.70;;;;;;;;;;10217154;28;20439;-63
2021/01/25 01:36:07;;;;;;;4.82;2.60;;;;;;;;;;10216205;28;20575;-63
2021/01/25 01:41:05;;;;;;;5.72;3.85;;;;;;;;;;10216794;28;20069;-63
2021/01/25 01:46:02;;;;;;;5.22;2.70;;;;;;;;;;10215722;28;20080;-63
2021/01/25 01:51:00;;;;;;;8.57;3.70;;;;;;;;;;10215872;28;20069;-62
2021/01/25 01:55:59;;;;;;;6.25;3.40;;;;;;;;;;10215106;28;20077;-62
2021/01/25 02:00:56;;;;;;;7.55;3.67;;;;;;;;;;10216286;28;20079;-62
2021/01/25 02:05:54;;;;;;;6.90;3.00;;;;;;;;;;10215750;28;20080;-61
2021/01/25 02:10:55;;;;;;;8.65;2.78;;;;;;;;;;10214797;28;20065;-62
2021/01/25 02:15:53;;;;;;;4.43;3.17;;;;;;;;;;10214493;28;20080;-62
2021/01/25 02:20:50;;;;;;;4.45;2.53;;;;;;;;;;10214097;28;20081;-62
2021/01/25 02:25:49;;;;;;;9.07;3.40;;;;;;;;;;10215542;28;20066;-63
2021/01/25 02:30:48;;;;;;;6.45;2.80;;;;;;;;;;10210979;28;20065;-62
2021/01/25 02:35:46;;;;;;;6.55;2.90;;;;;;;;;;10214436;28;20053;-61
2021/01/25 02:40:46;;;;;;;5.45;2.40;;;;;;;;;;10213547;28;20080;-62
2021/01/25 02:45:44;;;;;;;4.38;2.83;;;;;;;;;;10214620;28;20073;-62
2021/01/25 02:50:49;;;;;;;8.50;3.10;;;;;;;;;;10213529;28;20545;-62
2021/01/25 02:55:47;;;;;;;7.65;3.47;;;;;;;;;;10214474;28;20069;-63
2021/01/25 03:00:44;;;;;;;7.25;3.15;;;;;;;;;;10212963;28;20088;-63
2021/01/25 03:05:42;;;;;;;5.93;2.92;;;;;;;;;;10211650;28;20081;-62
2021/01/25 03:10:40;;;;;;;7.07;2.95;;;;;;;;;;10211314;28;20121;-63
2021/01/25 03:15:39;;;;;;;4.72;2.50;;;;;;;;;;10211997;28;20065;-63
2021/01/25 03:20:37;;;;;;;4.35;2.92;;;;;;;;;;10213838;28;20108;-62
2021/01/25 03:25:34;;;;;;;5.35;3.10;;;;;;;;;;10212325;28;20499;-64
2021/01/25 03:30:32;;;;;;;7.80;3.88;;;;;;;;;;10213579;28;20487;-62
2021/01/25 03:35:30;;;;;;;5.88;2.85;;;;;;;;;;10210934;28;20077;-63
2021/01/25 03:40:27;;;;;;;7.72;3.72;;;;;;;;;;10212722;28;20066;-62
2021/01/25 03:45:24;;;;;;;7.43;2.95;;;;;;;;;;10212570;28;20081;-63
2021/01/25 03:50:22;;;;;;;6.30;2.72;;;;;;;;;;10220058;28;20077;-62
2021/01/25 03:55:20;;;;;;;7.63;3.38;;;;;;;;;;10221417;28;20470;-63
2021/01/25 04:00:18;;;;;;;8.23;3.28;;;;;;;;;;10216546;28;20072;-64
2021/01/25 04:05:15;;;;;;;6.30;2.28;;;;;;;;;;10219802;28;20069;-63
2021/01/25 04:10:13;;;;;;;6.32;2.88;;;;;;;;;;10218964;28;20164;-63
2021/01/25 04:15:11;;;;;;;5.95;2.40;;;;;;;;;;10219948;28;20062;-62
2021/01/25 04:20:09;;;;;;;4.93;3.08;;;;;;;;;;10219083;28;20084;-63
2021/01/25 04:25:08;;;;;;;5.82;2.72;;;;;;;;;;10217722;28;20084;-63
2021/01/25 04:30:07;;;;;;;5.15;2.78;;;;;;;;;;10219682;28;20093;-63
2021/01/25 04:35:06;;;;;;;8.50;2.85;;;;;;;;;;10217984;28;20072;-63
2021/01/25 04:40:05;;;;;;;6.97;2.78;;;;;;;;;;10215989;28;20343;-63
2021/01/25 04:45:03;;;;;;;8.98;5.60;;;;;;;;;;10214426;28;20115;-62
2021/01/25 04:50:02;;;;;;;6.82;2.58;;;;;;;;;;10218323;28;20074;-64
2021/01/25 04:55:01;;;;;;;7.75;3.40;;;;;;;;;;10214908;28;20503;-63
2021/01/25 05:00:01;;;;;;;5.55;2.80;;;;;;;;;;10217312;28;20462;-62
2021/01/25 05:04:59;;;;;;;6.55;3.10;;;;;;;;;;10217502;28;20072;-63
2021/01/25 05:09:57;;;;;;;4.70;2.88;;;;;;;;;;10217297;28;20534;-62
2021/01/25 05:14:54;;;;;;;5.72;3.40;;;;;;;;;;10216296;28;20108;-63
2021/01/25 05:19:57;;;;;;;10.98;3.63;;;;;;;;;;10216005;28;20081;-62
2021/01/25 05:24:55;;;;;;;4.70;3.33;;;;;;;;;;10217064;28;20073;-62
2021/01/25 05:29:53;;;;;;;6.72;3.78;;;;;;;;;;10215483;28;20073;-63
2021/01/25 05:35:01;;;;;;;7.90;2.88;;;;;;;;;;10213635;28;20076;-62
2021/01/25 05:39:59;;;;;;;6.18;3.85;;;;;;;;;;10214291;28;20153;-63
2021/01/25 05:44:57;;;;;;;7.95;3.90;;;;;;;;;;10217175;28;20077;-63
2021/01/25 05:49:54;;;;;;;4.18;2.55;;;;;;;;;;10213320;28;20080;-62
2021/01/25 05:54:52;;;;;;;4.85;2.65;;;;;;;;;;10212265;28;20537;-62
2021/01/25 05:59:49;;;;;;;8.05;3.53;;;;;;;;;;10215037;28;20073;-63
2021/01/25 06:04:48;;;;;;;5.10;2.65;;;;;;;;;;10213145;28;20065;-63
2021/01/25 06:09:50;;;;;;;7.47;3.38;;;;;;;;;;10212102;28;20073;-63
2021/01/25 06:14:50;;;;;;;16.27;6.45;;;;;;;;;;10214364;28;20072;-62
2021/01/25 06:19:49;;;;;;;8.00;3.75;;;;;;;;;;10214526;28;20081;-63
2021/01/25 06:24:46;;;;;;;6.93;3.70;;;;;;;;;;10214495;28;20470;-64
2021/01/25 06:29:44;;;;;;;9.80;4.03;;;;;;;;;;10213906;28;20077;-62
2021/01/25 06:34:41;;;;;;;9.45;5.00;;;;;;;;;;10213392;28;20077;-63
2021/01/25 06:39:44;;;;;;;9.40;4.78;;;;;;;;;;10212836;28;20060;-62
2021/01/25 06:44:42;;;;;;;7.25;4.00;;;;;;;;;;10210955;28;20073;-62
2021/01/25 06:49:39;;;;;;;10.77;5.10;;;;;;;;;;10214316;28;20073;-63
2021/01/25 06:54:41;;;;;;;6.72;3.15;;;;;;;;;;10212042;28;20065;-63
2021/01/25 06:59:41;;;;;;;12.00;7.80;;;;;;;;;;10210238;28;20068;-62
2021/01/25 07:04:41;;;;;;;8.63;4.65;;;;;;;;;;10208160;28;20083;-63
2021/01/25 07:09:47;;;;;;;11.80;8.57;;;;;;;;;;10214374;28;20076;-63
2021/01/25 07:14:45;;;;;;;12.63;7.15;;;;;;;;;;10210437;28;20538;-63
2021/01/25 07:19:43;;;;;;;9.50;6.40;;;;;;;;;;10209358;28;20085;-62
2021/01/25 07:24:40;;;;;;;9.05;4.57;;;;;;;;;;10211930;28;20484;-63
2021/01/25 07:29:38;;;;;;;11.32;6.13;;;;;;;;;;10213283;28;20089;-63
2021/01/25 07:34:38;;;;;;;10.85;6.30;;;;;;;;;;10212899;28;20072;-63
2021/01/25 07:39:35;;;;;;;13.90;8.00;;;;;;;;;;10212865;28;20451;-62
2021/01/25 07:44:33;;;;;;;14.80;9.07;;;;;;;;;;10213429;28;20061;-63
2021/01/25 07:49:31;;;;;;;24.00;14.80;;;;;;;;;;10211661;28;20410;-63
2021/01/25 07:54:30;;;;;;;14.00;8.20;;;;;;;;;;10213394;28;20068;-62
2021/01/25 07:59:34;;;;;;;12.40;9.32;;;;;;;;;;10210307;28;20046;-63
2021/01/25 08:04:33;;;;;;;16.20;10.32;;;;;;;;;;10212177;28;20084;-63
2021/01/25 08:09:37;;;;;;;50.88;33.17;;;;;;;;;;10212351;28;20070;-62
2021/01/25 08:14:37;;;;;;;26.65;18.33;;;;;;;;;;10210699;28;20084;-62
2021/01/25 08:19:36;;;;;;;13.63;8.93;;;;;;;;;;10210293;28;20589;-62
2021/01/25 08:24:34;;;;;;;24.48;17.33;;;;;;;;;;10210459;28;20068;-63
2021/01/25 08:29:31;;;;;;;35.38;23.05;;;;;;;;;;10210577;28;20065;-63
2021/01/25 08:34:31;;;;;;;28.17;13.23;;;;;;;;;;10215665;28;20136;-63
2021/01/25 08:39:34;;;;;;;14.15;8.90;;;;;;;;;;10218146;28;20061;-63
2021/01/25 08:44:35;;;;;;;15.50;10.55;;;;;;;;;;10215789;28;20077;-63
2021/01/25 08:49:34;;;;;;;17.45;11.13;;;;;;;;;;10219419;28;20061;-63
2021/01/25 08:54:32;;;;;;;16.33;11.30;;;;;;;;;;10216187;28;20042;-63
2021/01/25 08:59:31;;;;;;;21.85;11.73;;;;;;;;;;10218386;28;20073;-63
2021/01/25 09:04:29;;;;;;;18.55;13.00;;;;;;;;;;10214893;28;20065;-61
2021/01/25 09:09:28;;;;;;;17.58;13.63;;;;;;;;;;10218767;28;20077;-61
2021/01/25 09:14:25;;;;;;;16.63;12.48;;;;;;;;;;10216156;28;20080;-63
2021/01/25 09:19:22;;;;;;;16.75;13.80;;;;;;;;;;10215986;28;20081;-62
2021/01/25 09:24:19;;;;;;;16.50;12.38;;;;;;;;;;10217561;28;20073;-61
2021/01/25 09:29:18;;;;;;;14.07;11.15;;;;;;;;;;10216801;28;20135;-63
2021/01/25 09:34:15;;;;;;;19.42;16.58;;;;;;;;;;10218129;28;20077;-60
2021/01/25 09:39:14;;;;;;;28.23;21.00;;;;;;;;;;10213899;28;20092;-63
2021/01/25 09:44:12;;;;;;;16.75;13.68;;;;;;;;;;10213006;28;20064;-63
2021/01/25 09:49:11;;;;;;;19.33;14.18;;;;;;;;;;10216442;28;20073;-63
2021/01/25 09:54:08;;;;;;;53.45;35.55;;;;;;;;;;10213529;28;20459;-60
2021/01/25 09:59:05;;;;;;;18.42;14.07;;;;;;;;;;10216265;28;20080;-63
2021/01/25 10:04:03;;;;;;;20.42;12.88;;;;;;;;;;10215553;28;20065;-62
2021/01/25 10:09:01;;;;;;;14.60;9.23;;;;;;;;;;10214791;28;20506;-63
2021/01/25 10:14:02;;;;;;;16.45;11.50;;;;;;;;;;10216236;28;20065;-62
2021/01/25 10:19:00;;;;;;;16.27;11.45;;;;;;;;;;10213670;28;20077;-62
2021/01/25 10:23:57;;;;;;;32.17;20.05;;;;;;;;;;10211528;28;20076;-62
2021/01/25 10:28:56;;;;;;;15.23;8.77;;;;;;;;;;10215608;28;20072;-62
2021/01/25 10:33:54;;;;;;;23.67;15.02;;;;;;;;;;10213992;28;20084;-63
2021/01/25 10:38:51;;;;;;;20.15;13.25;;;;;;;;;;10214667;28;20065;-62
2021/01/25 10:43:48;;;;;;;12.60;7.90;;;;;;;;;;10214599;28;20057;-62
2021/01/25 10:48:47;;;;;;;29.45;16.40;;;;;;;;;;10213404;28;20080;-63
2021/01/25 10:53:44;;;;;;;38.70;18.48;;;;;;;;;;10214181;28;20451;-63
2021/01/25 10:58:41;;;;;;;26.67;13.75;;;;;;;;;;10209976;28;20069;-63
2021/01/25 11:03:47;;;;;;;31.67;19.73;;;;;;;;;;10210824;28;20073;-62
2021/01/25 11:08:45;;;;;;;11.77;8.45;;;;;;;;;;10213650;28;20510;-62
2021/01/25 11:13:42;;;;;;;17.58;11.02;;;;;;;;;;10209896;28;20073;-62
2021/01/25 11:18:40;;;;;;;18.50;12.13;;;;;;;;;;10209504;28;20096;-62
2021/01/25 11:23:38;;;;;;;12.30;8.05;;;;;;;;;;10213020;28;20077;-62
2021/01/25 11:28:35;;;;;;;27.27;16.55;;;;;;;;;;10212839;28;20078;-62
2021/01/25 11:33:35;;;;;;;27.98;16.35;;;;;;;;;;10212706;28;20085;-64
2021/01/25 11:38:35;;;;;;;28.63;17.25;;;;;;;;;;10213261;28;20076;-62
2021/01/25 11:43:33;;;;;;;16.48;12.32;;;;;;;;;;10212376;28;20072;-62
2021/01/25 11:48:30;;;;;;;62.05;35.67;;;;;;;;;;10213394;28;20085;-62
2021/01/25 11:53:28;;;;;;;50.10;27.90;;;;;;;;;;10209609;28;20465;-62
2021/01/25 11:58:26;;;;;;;19.73;13.82;;;;;;;;;;10212622;28;20114;-61
2021/01/25 12:03:24;;;;;;;22.23;14.63;;;;;;;;;;10211427;28;20065;-62
2021/01/25 12:08:21;;;;;;;53.13;28.85;;;;;;;;;;10208835;28;20073;-62
2021/01/25 12:13:18;;;;;;;63.95;34.72;;;;;;;;;;10221374;28;20064;-62
2021/01/25 12:18:16;;;;;;;36.72;22.90;;;;;;;;;;10219605;28;20085;-61
2021/01/25 12:23:14;;;;;;;31.63;17.52;;;;;;;;;;10219498;28;20081;-62
2021/01/25 12:28:11;;;;;;;50.28;29.35;;;;;;;;;;10219785;28;20486;-62
2021/01/25 12:33:09;;;;;;;22.52;14.15;;;;;;;;;;10218165;28;20065;-62
2021/01/25 12:38:06;;;;;;;10.20;8.50;;;;;;;;;;10215496;28;20072;-61
2021/01/25 12:43:05;;;;;;;14.20;9.50;;;;;;;;;;10215487;28;20080;-62
2021/01/25 12:48:02;;;;;;;19.15;11.45;;;;;;;;;;10218354;28;20077;-62
2021/01/25 12:52:59;;;;;;;58.38;28.92;;;;;;;;;;10218370;28;20092;-63
2021/01/25 12:57:58;;;;;;;21.77;13.93;;;;;;;;;;10217791;28;20077;-62
2021/01/25 13:02:57;;;;;;;11.55;8.27;;;;;;;;;;10217227;28;20069;-62
2021/01/25 13:07:54;;;;;;;18.42;12.73;;;;;;;;;;10217651;28;20077;-62
2021/01/25 13:12:52;;;;;;;16.42;10.82;;;;;;;;;;10218613;28;20061;-61
2021/01/25 13:17:50;;;;;;;15.98;12.23;;;;;;;;;;10213876;28;20069;-62
2021/01/25 13:22:48;;;;;;;30.73;18.10;;;;;;;;;;10217168;28;20078;-62
2021/01/25 13:27:46;;;;;;;16.10;11.50;;;;;;;;;;10216810;28;20478;-62
2021/01/25 13:32:43;;;;;;;6.30;5.65;;;;;;;;;;10216900;28;20061;-62
2021/01/25 13:37:41;;;;;;;7.85;5.72;;;;;;;;;;10216950;28;20061;-62
2021/01/25 13:42:40;;;;;;;42.50;23.90;;;;;;;;;;10215858;28;20109;-63
2021/01/25 13:47:37;;;;;;;21.27;13.05;;;;;;;;;;10217064;28;20085;-63
2021/01/25 13:52:35;;;;;;;15.63;9.90;;;;;;;;;;10212510;28;20487;-63
2021/01/25 13:57:32;;;;;;;14.70;9.52;;;;;;;;;;10215094;28;20073;-63
2021/01/25 14:02:31;;;;;;;8.95;6.90;;;;;;;;;;10215026;28;20455;-62
2021/01/25 14:07:29;;;;;;;5.53;4.93;;;;;;;;;;10216036;28;20081;-62
2021/01/25 14:12:26;;;;;;;8.90;5.93;;;;;;;;;;10214417;28;20069;-63
2021/01/25 14:17:23;;;;;;;10.57;8.68;;;;;;;;;;10214279;28;20065;-62
2021/01/25 14:22:22;;;;;;;17.98;12.25;;;;;;;;;;10215969;28;20081;-62
2021/01/25 14:27:19;;;;;;;21.33;15.75;;;;;;;;;;10211333;28;20115;-61
2021/01/25 14:32:17;;;;;;;11.50;8.90;;;;;;;;;;10214464;28;20468;-62
2021/01/25 14:37:15;;;;;;;12.35;10.20;;;;;;;;;;10212893;28;20511;-61
2021/01/25 14:42:14;;;;;;;20.30;12.70;;;;;;;;;;10214199;28;20070;-62
2021/01/25 14:47:11;;;;;;;24.52;15.00;;;;;;;;;;10210279;28;20060;-62
2021/01/25 14:52:09;;;;;;;8.23;6.93;;;;;;;;;;10213137;28;20512;-62
2021/01/25 14:57:06;;;;;;;12.07;9.10;;;;;;;;;;10209948;28;20073;-63
2021/01/25 15:02:04;;;;;;;16.35;11.13;;;;;;;;;;10214034;28;20066;-62
2021/01/25 15:07:03;;;;;;;33.35;18.48;;;;;;;;;;10212679;28;20440;-63
2021/01/25 15:12:00;;;;;;;30.73;21.10;;;;;;;;;;10213092;28;20077;-63
2021/01/25 15:16:59;;;;;;;21.27;12.40;;;;;;;;;;10212166;28;20080;-63
2021/01/25 15:21:57;;;;;;;19.67;13.73;;;;;;;;;;10212298;28;20089;-62
2021/01/25 15:26:56;;;;;;;23.98;17.30;;;;;;;;;;10213680;28;20076;-62
2021/01/25 15:31:53;;;;;;;15.50;11.00;;;;;;;;;;10211562;28;20072;-63
2021/01/25 15:36:51;;;;;;;17.20;12.25;;;;;;;;;;10209049;28;20534;-62
2021/01/25 15:41:49;;;;;;;22.50;14.02;;;;;;;;;;10205843;28;20070;-62
2021/01/25 15:46:46;;;;;;;14.73;11.48;;;;;;;;;;10209546;28;20077;-63
2021/01/25 15:51:44;;;;;;;14.75;10.98;;;;;;;;;;10215470;28;20069;-62
2021/01/25 15:56:42;;;;;;;44.95;28.85;;;;;;;;;;10213952;28;20067;-62
2021/01/25 16:01:40;;;;;;;22.75;17.63;;;;;;;;;;10213965;28;20070;-62
2021/01/25 16:06:37;;;;;;;29.92;22.00;;;;;;;;;;10218830;28;20066;-60
2021/01/25 16:11:35;;;;;;;41.72;26.85;;;;;;;;;;10213024;28;20081;-59
2021/01/25 16:16:32;;;;;;;42.45;26.30;;;;;;;;;;10214022;28;20080;-61
2021/01/25 16:21:31;;;;;;;20.08;13.70;;;;;;;;;;10218494;28;20088;-62
2021/01/25 16:26:28;;;;;;;34.45;23.95;;;;;;;;;;10218509;28;20093;-62
2021/01/25 16:31:29;;;;;;;37.38;22.40;;;;;;;;;;10213778;28;20081;-61
2021/01/25 16:36:26;;;;;;;34.72;21.75;;;;;;;;;;10216878;28;20111;-61
2021/01/25 16:41:24;;;;;;;63.97;35.92;;;;;;;;;;10217821;28;20088;-61
2021/01/25 16:46:22;;;;;;;26.27;19.75;;;;;;;;;;10214611;28;20072;-61
2021/01/25 16:51:19;;;;;;;31.75;21.05;;;;;;;;;;10209384;28;20074;-62
2021/01/25 16:56:16;;;;;;;29.83;20.52;;;;;;;;;;10208972;28;20518;-62
2021/01/25 17:01:15;;;;;;;37.15;22.60;;;;;;;;;;10211801;28;20069;-61
2021/01/25 17:06:13;;;;;;;31.27;20.60;;;;;;;;;;10217443;28;20064;-62
2021/01/25 17:11:10;;;;;;;33.90;21.13;;;;;;;;;;10217422;28;20124;-63
2021/01/25 17:16:07;;;;;;;41.17;24.10;;;;;;;;;;10216597;28;20084;-61
2021/01/25 17:21:06;;;;;;;24.02;16.17;;;;;;;;;;10213116;28;20084;-62
2021/01/25 17:26:03;;;;;;;27.48;17.95;;;;;;;;;;10216034;28;20077;-61
2021/01/25 17:31:00;;;;;;;31.83;20.85;;;;;;;;;;10207662;28;20073;-61
2021/01/25 17:35:58;;;;;;;37.78;25.98;;;;;;;;;;10211265;28;20070;-62
2021/01/25 17:40:56;;;;;;;38.70;27.58;;;;;;;;;;10211302;28;20068;-62
2021/01/25 17:45:54;;;;;;;36.90;21.85;;;;;;;;;;10213175;28;20077;-63
2021/01/25 17:50:51;;;;;;;35.40;21.15;;;;;;;;;;10210204;28;20076;-61
2021/01/25 17:55:48;;;;;;;49.63;28.83;;;;;;;;;;10214964;28;20073;-62
2021/01/25 18:00:49;;;;;;;27.23;17.13;;;;;;;;;;10211581;28;20519;-61
2021/01/25 18:05:49;;;;;;;42.17;27.60;;;;;;;;;;10212585;28;20076;-62
2021/01/25 18:10:47;;;;;;;17.70;12.95;;;;;;;;;;10212569;28;20068;-62
2021/01/25 18:15:44;;;;;;;17.40;11.55;;;;;;;;;;10211725;28;20081;-60
2021/01/25 18:20:43;;;;;;;9.23;7.80;;;;;;;;;;10219642;28;20076;-60
2021/01/25 18:25:40;;;;;;;20.00;14.75;;;;;;;;;;10209910;28;20545;-60
2021/01/25 18:30:38;;;;;;;20.52;13.82;;;;;;;;;;10213389;28;20088;-62
2021/01/25 18:35:36;;;;;;;19.20;12.85;;;;;;;;;;10212925;28;20080;-62
2021/01/25 18:40:35;;;;;;;27.05;16.98;;;;;;;;;;10213935;28;20065;-61
2021/01/25 18:45:35;;;;;;;13.07;9.10;;;;;;;;;;10210751;28;20482;-63
2021/01/25 18:50:32;;;;;;;18.40;11.23;;;;;;;;;;10211692;28;20490;-61
2021/01/25 18:55:30;;;;;;;32.72;18.80;;;;;;;;;;10213534;28;20065;-62
2021/01/25 19:00:28;;;;;;;26.05;17.77;;;;;;;;;;10207328;28;20504;-62
2021/01/25 19:05:26;;;;;;;23.73;15.57;;;;;;;;;;10213423;28;20535;-61
2021/01/25 19:10:27;;;;;;;20.25;13.98;;;;;;;;;;10212928;28;20065;-62
2021/01/25 19:15:27;;;;;;;32.42;20.00;;;;;;;;;;10213728;28;20064;-63
2021/01/25 19:20:27;;;;;;;34.38;20.00;;;;;;;;;;10210669;28;20541;-61
2021/01/25 19:25:26;;;;;;;26.02;16.88;;;;;;;;;;10212072;28;20498;-61
2021/01/25 19:30:24;;;;;;;10.50;7.45;;;;;;;;;;10210026;28;20163;-59
2021/01/25 19:35:23;;;;;;;10.90;7.47;;;;;;;;;;10211728;28;20064;-62
2021/01/25 19:40:23;;;;;;;13.73;9.35;;;;;;;;;;10211291;28;20068;-61
2021/01/25 19:45:23;;;;;;;11.20;7.97;;;;;;;;;;10211125;28;20065;-61
2021/01/25 19:50:20;;;;;;;9.77;7.90;;;;;;;;;;10208804;28;20084;-61
2021/01/25 19:55:19;;;;;;;11.60;8.63;;;;;;;;;;10211784;28;20073;-62
2021/01/25 20:00:19;;;;;;;12.00;7.82;;;;;;;;;;10208512;28;20073;-61
2021/01/25 20:05:17;;;;;;;13.43;9.57;;;;;;;;;;10207569;28;20470;-61
2021/01/25 20:10:16;;;;;;;15.40;11.45;;;;;;;;;;10206847;28;20570;-62
2021/01/25 20:15:13;;;;;;;12.60;9.38;;;;;;;;;;10208749;28;20073;-61
2021/01/25 20:20:12;;;;;;;25.83;17.00;;;;;;;;;;10206410;28;20089;-60
2021/01/25 20:25:11;;;;;;;9.48;8.38;;;;;;;;;;10208236;28;20074;-62
2021/01/25 20:30:09;;;;;;;8.82;7.32;;;;;;;;;;10211636;28;20066;-61
2021/01/25 20:35:10;;;;;;;12.35;8.98;;;;;;;;;;10215379;28;20077;-62
2021/01/25 20:40:09;;;;;;;12.20;7.15;;;;;;;;;;10214949;28;20065;-62
2021/01/25 20:45:07;;;;;;;11.05;8.57;;;;;;;;;;10214572;28;20496;-63
2021/01/25 20:50:06;;;;;;;20.60;16.55;;;;;;;;;;10214131;28;20077;-64
2021/01/25 20:55:05;;;;;;;153.95;82.28;;;;;;;;;;10214217;28;21132;-62
2021/01/25 21:00:04;;;;;;;223.15;112.13;;;;;;;;;;10217182;28;20069;-62
2021/01/25 21:05:03;;;;;;;456.77;209.13;;;;;;;;;;10218956;28;20088;-61
2021/01/25 21:10:00;;;;;;;407.75;194.43;;;;;;;;;;10218088;28;20106;-61
2021/01/25 21:14:58;;;;;;;164.20;77.45;;;;;;;;;;10218316;28;20074;-61
2021/01/25 21:19:56;;;;;;;144.65;74.50;;;;;;;;;;10216965;28;20065;-62
2021/01/25 21:24:54;;;;;;;155.95;81.25;;;;;;;;;;10210988;28;20061;-60
2021/01/25 21:29:52;;;;;;;90.57;47.00;;;;;;;;;;10211691;28;20077;-62
2021/01/25 21:34:49;;;;;;;47.13;28.30;;;;;;;;;;10213358;28;20065;-61
2021/01/25 21:39:47;;;;;;;35.70;21.77;;;;;;;;;;10213426;28;20103;-61
2021/01/25 21:44:45;;;;;;;17.98;12.02;;;;;;;;;;10214755;28;20080;-61
2021/01/25 21:49:42;;;;;;;47.15;28.30;;;;;;;;;;10216906;28;20076;-62
2021/01/25 21:54:40;;;;;;;70.88;38.70;;;;;;;;;;10212223;28;20072;-61
2021/01/25 21:59:39;;;;;;;40.63;23.50;;;;;;;;;;10217014;28;20065;-60
2021/01/25 22:04:38;;;;;;;40.90;23.48;;;;;;;;;;10214635;28;20478;-61
2021/01/25 22:09:35;;;;;;;27.48;17.15;;;;;;;;;;10215498;28;20077;-62
2021/01/25 22:14:33;;;;;;;26.38;15.55;;;;;;;;;;10215600;28;20065;-61
2021/01/25 22:19:31;;;;;;;51.53;29.40;;;;;;;;;;10214361;28;20096;-61
2021/01/25 22:24:29;;;;;;;46.22;27.80;;;;;;;;;;10215912;28;20073;-62
2021/01/25 22:29:26;;;;;;;24.10;15.05;;;;;;;;;;10214044;28;20081;-62
2021/01/25 22:34:24;;;;;;;36.55;23.13;;;;;;;;;;10211285;28;20068;-61
2021/01/25 22:39:22;;;;;;;26.27;17.48;;;;;;;;;;10215452;28;20153;-62
2021/01/25 22:44:19;;;;;;;25.45;16.60;;;;;;;;;;10213827;28;20078;-61
2021/01/25 22:49:17;;;;;;;56.45;31.20;;;;;;;;;;10214231;28;20467;-61
2021/01/25 22:54:14;;;;;;;87.35;47.70;;;;;;;;;;10213795;28;20084;-62
2021/01/25 22:59:13;;;;;;;84.25;39.88;;;;;;;;;;10213156;28;20065;-62
2021/01/25 23:04:10;;;;;;;111.88;49.35;;;;;;;;;;10213425;28;20077;-62
2021/01/25 23:09:07;;;;;;;76.10;34.40;;;;;;;;;;10210069;28;20073;-62
2021/01/25 23:14:05;;;;;;;97.65;43.65;;;;;;;;;;10214125;28;20069;-62
2021/01/25 23:19:05;;;;;;;32.13;15.70;;;;;;;;;;10211136;28;20149;-62
2021/01/25 23:24:03;;;;;;;12.23;7.82;;;;;;;;;;10212669;28;20072;-61
2021/01/25 23:29:01;;;;;;;16.48;9.23;;;;;;;;;;10213210;28;20088;-62
2021/01/25 23:33:59;;;;;;;18.98;12.85;;;;;;;;;;10212559;28;20464;-61
2021/01/25 23:38:57;;;;;;;11.80;8.00;;;;;;;;;;10212244;28;20085;-61
2021/01/25 23:43:54;;;;;;;12.95;10.40;;;;;;;;;;10212184;28;20121;-62
2021/01/25 23:48:52;;;;;;;13.40;9.90;;;;;;;;;;10213069;28;20076;-61
2021/01/25 23:53:49;;;;;;;13.75;9.80;;;;;;;;;;10211940;28;20061;-62
2021/01/25 23:58:48;;;;;;;14.10;9.68;;;;;;;;;;10211186;28;20077;-61
